Terminal Aerodrome Forecast
Issued by NWS Springfield, MO

Home | Current Version | Previous Version | Text Only | Print | Product List | Glossary On
Versions: 1 2 3 4 5 6 7 8 9 10 11 12 13 14 15 16 17
699
FTUS43 KSGF 261120
TAFSGF
TAF
KSGF 261120Z 2612/2712 35005KT P6SM SCT200
      TEMPO 2612/2614 4SM BR
     FM261400 35007KT P6SM SKC
     FM270400 VRB03KT P6SM SKC=

USA.gov is the U.S. government's official web portal to all federal, state and local government web resources and services.